Time;durP1;ratioP1;P1;durP2;ratioP2;P2;SDS_P1;SDS_P2;PMS_P1;PMS_P2;Temp;Humidity;BMP_temperature;BMP_pressure;BME280_temperature;BME280_humidity;BME280_pressure;Samples;Min_cycle;Max_cycle;Signal;HPM_P1;HPM_P2
2023/06/19 00:01:55;;;;;;;12.40;11.35;;;19.60;71.00;;;;;;4974244;28;20262;-86
2023/06/19 00:04:21;;;;;;;12.20;11.10;;;19.60;71.30;;;;;;4974089;28;20730;-87
2023/06/19 00:06:46;;;;;;;13.40;11.48;;;19.60;71.10;;;;;;4974145;28;20210;-86
2023/06/19 00:09:12;;;;;;;13.02;11.85;;;19.70;70.80;;;;;;4974234;28;20374;-86
2023/06/19 00:11:38;;;;;;;13.27;12.18;;;19.70;70.50;;;;;;4975913;28;20170;-86
2023/06/19 00:14:04;;;;;;;12.65;11.60;;;19.60;70.30;;;;;;4975387;28;20249;-86
2023/06/19 00:16:29;;;;;;;13.38;12.18;;;19.70;70.50;;;;;;4974018;28;20660;-87
2023/06/19 00:18:57;;;;;;;12.80;11.57;;;19.70;70.30;;;;;;4975188;28;20187;-86
2023/06/19 00:21:27;;;;;;;12.82;11.80;;;19.70;70.00;;;;;;4975246;28;20185;-86
2023/06/19 00:23:53;;;;;;;13.25;12.10;;;19.70;69.90;;;;;;4973808;28;20782;-86
2023/06/19 00:26:22;;;;;;;13.50;12.40;;;19.70;70.30;;;;;;4975104;28;20182;-86
2023/06/19 00:28:48;;;;;;;12.73;11.52;;;19.70;70.40;;;;;;4973840;28;20253;-87
2023/06/19 00:31:14;;;;;;;13.55;12.45;;;19.60;70.30;;;;;;4973829;28;20210;-86
2023/06/19 00:33:41;;;;;;;15.38;12.02;;;19.60;70.20;;;;;;4973752;28;20573;-86
2023/06/19 00:36:11;;;;;;;15.80;12.00;;;19.70;70.60;;;;;;4975263;28;20218;-86
2023/06/19 00:38:38;;;;;;;13.40;11.82;;;19.60;70.80;;;;;;4973663;28;20179;-86
2023/06/19 00:41:05;;;;;;;12.98;11.90;;;19.50;71.30;;;;;;4973674;28;20552;-86
2023/06/19 00:43:31;;;;;;;12.40;11.32;;;19.50;71.50;;;;;;4973413;28;20203;-86
2023/06/19 00:45:57;;;;;;;12.38;11.23;;;19.50;71.20;;;;;;4974121;28;20178;-86
2023/06/19 00:48:23;;;;;;;11.65;10.68;;;19.50;71.40;;;;;;4974719;28;20657;-86
2023/06/19 00:50:50;;;;;;;13.82;12.63;;;19.40;71.30;;;;;;4973755;28;20179;-86
2023/06/19 00:53:17;;;;;;;12.90;11.63;;;19.40;70.80;;;;;;4974568;28;20204;-86
2023/06/19 00:55:44;;;;;;;13.25;12.02;;;19.40;70.60;;;;;;4973512;28;20299;-86
2023/06/19 00:58:10;;;;;;;13.13;11.82;;;19.50;70.50;;;;;;4973376;28;20201;-86
2023/06/19 01:00:35;;;;;;;13.07;11.98;;;19.40;70.10;;;;;;4974720;28;20648;-86
2023/06/19 01:03:01;;;;;;;13.93;12.60;;;19.50;69.80;;;;;;4973139;28;20245;-86
2023/06/19 01:05:26;;;;;;;14.00;12.68;;;19.50;69.60;;;;;;4974502;28;20171;-86
2023/06/19 01:08:34;;;;;;;13.13;11.93;;;19.50;69.10;;;;;;4973270;28;20178;-87
2023/06/19 01:11:02;;;;;;;13.40;12.30;;;19.50;69.20;;;;;;4973057;28;20185;-86
2023/06/19 01:13:30;;;;;;;13.82;12.48;;;19.60;69.40;;;;;;4973033;28;20195;-86
2023/06/19 01:15:57;;;;;;;13.25;12.20;;;19.50;69.10;;;;;;4973372;28;20273;-86
2023/06/19 01:18:23;;;;;;;14.05;12.70;;;19.50;69.30;;;;;;4974445;28;20175;-86
2023/06/19 01:20:49;;;;;;;13.82;12.40;;;19.50;69.20;;;;;;4974389;28;20178;-86
2023/06/19 01:23:15;;;;;;;14.10;12.77;;;19.50;69.10;;;;;;4974346;28;20252;-87
2023/06/19 01:25:40;;;;;;;14.57;13.23;;;19.50;68.90;;;;;;4973420;28;20190;-86
2023/06/19 01:28:10;;;;;;;13.70;12.60;;;19.50;69.10;;;;;;4974309;28;20645;-86
2023/06/19 01:30:37;;;;;;;14.00;12.80;;;19.50;69.10;;;;;;4973241;28;20691;-87
2023/06/19 01:33:09;;;;;;;14.70;13.50;;;19.40;69.40;;;;;;4972981;28;20206;-86
2023/06/19 01:35:37;;;;;;;13.45;12.45;;;19.50;69.40;;;;;;4974164;28;20270;-87
2023/06/19 01:38:03;;;;;;;14.20;12.98;;;19.50;69.40;;;;;;4973229;28;20179;-86
2023/06/19 01:40:31;;;;;;;13.23;12.18;;;19.40;69.40;;;;;;4973176;28;20232;-86
2023/06/19 01:43:00;;;;;;;13.95;12.55;;;19.50;69.60;;;;;;4972863;28;20795;-86
2023/06/19 01:45:29;;;;;;;13.45;12.38;;;19.50;69.60;;;;;;4974184;28;20175;-86
2023/06/19 01:47:55;;;;;;;13.68;12.30;;;19.50;69.60;;;;;;4972901;28;20182;-86
2023/06/19 01:50:24;;;;;;;13.15;11.95;;;19.50;69.70;;;;;;4972899;28;20175;-86
2023/06/19 01:52:50;;;;;;;13.98;12.73;;;19.50;69.90;;;;;;4972873;28;20665;-87
2023/06/19 01:55:16;;;;;;;14.45;13.15;;;19.50;70.00;;;;;;4974046;28;20175;-86
2023/06/19 01:57:42;;;;;;;13.50;12.52;;;19.40;70.00;;;;;;4972820;28;20697;-86
2023/06/19 02:00:09;;;;;;;13.23;12.00;;;19.50;70.30;;;;;;4972792;28;20209;-86
2023/06/19 02:02:35;;;;;;;12.73;11.77;;;19.50;70.40;;;;;;4973823;28;20187;-86
2023/06/19 02:05:01;;;;;;;13.23;12.23;;;19.40;70.60;;;;;;4974133;28;20534;-86
2023/06/19 02:07:27;;;;;;;13.20;12.10;;;19.40;70.70;;;;;;4972734;28;20185;-86
2023/06/19 02:09:52;;;;;;;13.52;12.25;;;19.30;70.80;;;;;;4972909;28;20190;-86
2023/06/19 02:12:18;;;;;;;13.02;12.02;;;19.30;70.90;;;;;;4976234;28;20175;-86
2023/06/19 02:14:43;;;;;;;13.98;12.68;;;19.30;71.10;;;;;;4977585;28;20561;-86
2023/06/19 02:17:09;;;;;;;13.20;11.85;;;19.30;71.00;;;;;;4976334;28;20555;-86
2023/06/19 02:19:34;;;;;;;13.13;11.88;;;19.30;71.30;;;;;;4976192;28;20233;-86
2023/06/19 02:22:00;;;;;;;13.27;12.10;;;19.30;71.80;;;;;;4976158;28;20182;-86
2023/06/19 02:24:26;;;;;;;13.00;11.90;;;19.30;72.00;;;;;;4977137;28;20202;-86
2023/06/19 02:26:51;;;;;;;18.17;12.38;;;19.20;72.10;;;;;;4977334;28;20175;-86
2023/06/19 02:29:17;;;;;;;12.65;11.65;;;19.20;72.20;;;;;;4975962;28;20277;-86
2023/06/19 02:31:43;;;;;;;14.98;11.90;;;19.20;72.30;;;;;;4976019;28;20578;-86
2023/06/19 02:34:09;;;;;;;13.00;11.80;;;19.20;72.60;;;;;;4977129;28;20206;-86
2023/06/19 02:36:35;;;;;;;12.55;11.55;;;19.10;73.00;;;;;;4977028;28;20665;-86
2023/06/19 02:39:01;;;;;;;14.20;12.98;;;19.10;73.30;;;;;;4977327;28;20644;-86
2023/06/19 02:41:27;;;;;;;13.18;11.80;;;19.10;73.60;;;;;;4975867;28;20190;-86
2023/06/19 02:43:52;;;;;;;12.88;11.77;;;19.10;73.80;;;;;;4976749;28;20211;-86
2023/06/19 02:46:18;;;;;;;11.65;10.75;;;19.00;73.70;;;;;;4975728;28;20218;-86
2023/06/19 02:48:43;;;;;;;12.77;11.68;;;19.00;73.70;;;;;;4975615;28;20266;-86
2023/06/19 02:51:09;;;;;;;12.43;11.38;;;18.90;73.50;;;;;;4975642;28;20672;-86
2023/06/19 02:53:34;;;;;;;12.32;11.30;;;19.00;73.70;;;;;;4976715;28;20708;-86
2023/06/19 02:56:00;;;;;;;12.88;11.73;;;19.00;73.80;;;;;;4977000;28;20254;-86
2023/06/19 02:58:26;;;;;;;12.93;11.73;;;19.00;73.90;;;;;;4976666;28;20275;-86
2023/06/19 03:00:52;;;;;;;13.15;12.13;;;19.00;73.90;;;;;;4975440;28;20179;-86
2023/06/19 03:03:17;;;;;;;14.30;12.00;;;19.00;74.00;;;;;;4975283;28;20706;-87
2023/06/19 03:05:43;;;;;;;12.80;11.70;;;19.00;74.00;;;;;;4975430;28;20179;-86
2023/06/19 03:08:09;;;;;;;12.45;11.52;;;18.90;73.90;;;;;;4976582;28;20553;-86
2023/06/19 03:10:34;;;;;;;12.23;11.23;;;19.00;73.40;;;;;;4975214;28;20299;-86
2023/06/19 03:13:00;;;;;;;12.88;11.60;;;19.10;73.30;;;;;;4975164;28;20203;-86
2023/06/19 03:15:26;;;;;;;13.48;11.60;;;19.10;73.20;;;;;;4975131;28;20174;-86
2023/06/19 03:17:53;;;;;;;12.45;11.50;;;19.10;73.30;;;;;;4975954;28;20186;-86
2023/06/19 03:20:19;;;;;;;13.13;11.18;;;19.00;73.50;;;;;;4975140;28;20265;-87
2023/06/19 03:22:46;;;;;;;12.68;11.40;;;19.10;73.70;;;;;;4973706;28;20641;-86
2023/06/19 03:25:11;;;;;;;12.77;11.70;;;19.00;73.90;;;;;;4975091;28;20266;-86
2023/06/19 03:27:37;;;;;;;12.57;11.40;;;19.00;73.90;;;;;;4975068;28;20265;-86
2023/06/19 03:30:06;;;;;;;14.55;11.80;;;19.00;74.00;;;;;;4976590;28;20179;-86
2023/06/19 03:32:32;;;;;;;12.57;11.27;;;19.00;74.00;;;;;;4974821;28;20312;-87
2023/06/19 03:34:58;;;;;;;15.02;11.88;;;19.00;74.00;;;;;;4975507;28;20183;-87
2023/06/19 03:37:23;;;;;;;12.98;11.57;;;19.00;73.90;;;;;;4974814;28;20314;-86
2023/06/19 03:39:49;;;;;;;12.63;11.50;;;19.00;73.80;;;;;;4974760;28;20213;-87
2023/06/19 03:42:14;;;;;;;14.52;12.85;;;19.00;73.60;;;;;;4974694;28;20182;-86
2023/06/19 03:44:40;;;;;;;12.25;11.13;;;19.10;73.60;;;;;;4974623;28;20289;-87
2023/06/19 03:47:06;;;;;;;11.52;10.52;;;19.10;73.80;;;;;;4975932;28;20175;-86
2023/06/19 03:49:32;;;;;;;12.23;11.23;;;19.00;73.70;;;;;;4975290;28;20177;-87
2023/06/19 03:51:57;;;;;;;12.25;11.15;;;19.00;73.60;;;;;;4974540;28;20171;-86
2023/06/19 03:54:23;;;;;;;16.83;11.55;;;19.10;73.40;;;;;;4974428;28;20242;-86
2023/06/19 03:56:48;;;;;;;11.88;10.77;;;19.10;73.30;;;;;;4975627;28;20183;-87
2023/06/19 03:59:14;;;;;;;12.55;10.93;;;19.10;73.20;;;;;;4976081;28;20178;-87
2023/06/19 04:01:40;;;;;;;12.88;10.52;;;19.10;73.10;;;;;;4974434;28;20189;-87
2023/06/19 04:04:06;;;;;;;11.98;10.70;;;19.10;73.20;;;;;;4974242;28;20210;-87
2023/06/19 04:06:31;;;;;;;11.63;10.55;;;19.00;73.10;;;;;;4974181;28;20265;-87
2023/06/19 04:08:57;;;;;;;12.32;11.10;;;19.10;73.30;;;;;;4974057;28;20220;-87
2023/06/19 04:11:22;;;;;;;11.55;10.52;;;19.10;73.40;;;;;;4974137;28;20174;-87
2023/06/19 04:13:48;;;;;;;11.38;10.18;;;19.10;73.70;;;;;;4974320;28;20691;-86
2023/06/19 04:16:13;;;;;;;12.15;10.63;;;19.10;73.70;;;;;;4975522;28;20186;-86
2023/06/19 04:18:39;;;;;;;12.25;10.88;;;19.20;73.90;;;;;;4975111;28;20182;-87
2023/06/19 04:21:04;;;;;;;11.95;10.85;;;19.10;73.90;;;;;;4975114;28;20175;-87
2023/06/19 04:23:30;;;;;;;12.68;11.10;;;19.10;74.30;;;;;;4974963;28;20235;-87
2023/06/19 04:25:55;;;;;;;12.57;11.30;;;19.10;74.40;;;;;;4973973;28;20182;-87
2023/06/19 04:28:21;;;;;;;17.23;11.20;;;19.10;74.30;;;;;;4973871;28;20182;-86
2023/06/19 04:30:46;;;;;;;11.57;10.48;;;19.10;74.50;;;;;;4974931;28;20197;-87
2023/06/19 04:33:12;;;;;;;12.18;10.52;;;19.00;74.90;;;;;;4973318;28;20199;-87
2023/06/19 04:35:39;;;;;;;11.75;10.75;;;19.00;75.10;;;;;;4973810;28;20664;-87
2023/06/19 04:38:06;;;;;;;16.00;10.90;;;19.00;75.10;;;;;;4973697;28;20174;-87
2023/06/19 04:40:32;;;;;;;13.57;11.02;;;18.90;75.10;;;;;;4974037;28;20213;-87
2023/06/19 04:42:59;;;;;;;12.32;11.23;;;18.90;75.10;;;;;;4973676;28;20258;-86
2023/06/19 04:45:24;;;;;;;12.25;10.63;;;18.90;75.00;;;;;;4973604;28;20182;-87
2023/06/19 04:47:50;;;;;;;12.82;11.48;;;19.00;75.20;;;;;;4973513;28;20555;-86
2023/06/19 04:50:16;;;;;;;11.95;10.63;;;18.90;75.40;;;;;;4973582;28;20217;-86
2023/06/19 04:52:42;;;;;;;11.50;10.38;;;18.90;75.30;;;;;;4973594;28;20567;-86
2023/06/19 04:55:11;;;;;;;12.52;11.43;;;18.90;75.40;;;;;;4974678;28;20166;-87
2023/06/19 04:57:37;;;;;;;12.07;10.95;;;18.90;75.20;;;;;;4973388;28;20175;-86
2023/06/19 05:00:06;;;;;;;11.80;10.70;;;18.90;75.20;;;;;;4973342;28;20174;-87
2023/06/19 05:02:33;;;;;;;13.43;11.73;;;18.90;75.30;;;;;;4973250;28;20634;-87
2023/06/19 05:05:03;;;;;;;15.23;11.73;;;18.90;75.20;;;;;;4974383;28;20285;-87
2023/06/19 05:07:32;;;;;;;15.30;11.48;;;19.00;75.30;;;;;;4973317;28;20179;-87
2023/06/19 05:09:58;;;;;;;12.60;11.48;;;19.00;75.40;;;;;;4973285;28;20175;-86
2023/06/19 05:12:24;;;;;;;12.57;11.38;;;19.00;75.50;;;;;;4974667;28;20199;-87
2023/06/19 05:14:50;;;;;;;13.02;10.55;;;19.00;75.70;;;;;;4973198;28;20273;-87
2023/06/19 05:17:15;;;;;;;12.90;11.70;;;19.00;76.00;;;;;;4974368;28;20182;-87
2023/06/19 05:19:41;;;;;;;13.10;11.82;;;19.00;76.20;;;;;;4974354;28;20555;-87
2023/06/19 05:22:06;;;;;;;13.90;12.15;;;18.90;76.50;;;;;;4974270;28;20183;-87
2023/06/19 05:24:33;;;;;;;12.10;10.88;;;18.90;76.50;;;;;;4974318;28;20256;-87
2023/06/19 05:26:58;;;;;;;12.30;11.20;;;18.90;76.70;;;;;;4972986;28;20178;-86
2023/06/19 05:29:26;;;;;;;12.73;11.65;;;19.00;76.10;;;;;;4974395;28;20512;-87
2023/06/19 05:31:52;;;;;;;13.30;11.48;;;19.10;75.60;;;;;;4974176;28;20280;-87
2023/06/19 05:34:17;;;;;;;14.15;11.80;;;19.10;75.20;;;;;;4972893;28;20241;-87
2023/06/19 05:36:46;;;;;;;13.27;12.05;;;19.20;74.70;;;;;;4973969;28;20272;-87
2023/06/19 05:39:11;;;;;;;13.73;12.23;;;19.20;74.60;;;;;;4973070;28;20186;-86
2023/06/19 05:41:37;;;;;;;14.00;12.75;;;19.20;74.50;;;;;;4972918;28;20552;-86
2023/06/19 05:44:02;;;;;;;13.27;12.13;;;19.30;74.60;;;;;;4972813;28;20210;-86
2023/06/19 05:46:28;;;;;;;13.60;12.40;;;19.30;75.20;;;;;;4975733;28;20170;-86
2023/06/19 05:48:54;;;;;;;13.05;11.75;;;19.30;75.10;;;;;;4976748;28;20185;-87
2023/06/19 05:51:20;;;;;;;13.30;11.38;;;19.40;74.80;;;;;;4977992;28;20162;-87
2023/06/19 05:53:46;;;;;;;13.43;12.02;;;19.30;75.20;;;;;;4977946;28;20195;-86
2023/06/19 05:56:12;;;;;;;13.25;12.15;;;19.30;75.60;;;;;;4976748;28;20182;-86
2023/06/19 05:58:38;;;;;;;14.00;12.00;;;19.30;76.00;;;;;;4978175;28;20175;-87
2023/06/19 06:01:04;;;;;;;14.15;12.65;;;19.20;76.20;;;;;;4976607;28;20727;-86
2023/06/19 06:03:30;;;;;;;13.43;12.05;;;19.20;76.20;;;;;;4976336;28;20207;-86
2023/06/19 06:06:02;;;;;;;19.25;13.40;;;19.20;75.90;;;;;;4976493;28;20179;-85
2023/06/19 06:08:30;;;;;;;15.70;12.98;;;19.20;76.20;;;;;;4977827;28;20147;-86
2023/06/19 06:10:56;;;;;;;16.17;14.70;;;19.20;76.60;;;;;;4976396;28;20190;-86
2023/06/19 06:13:22;;;;;;;15.45;13.95;;;19.20;78.30;;;;;;4976440;28;20286;-86
2023/06/19 06:15:47;;;;;;;16.95;15.30;;;19.20;80.30;;;;;;4976455;28;20174;-86
2023/06/19 06:18:13;;;;;;;15.98;14.30;;;19.30;81.70;;;;;;4976248;28;20273;-86
2023/06/19 06:20:39;;;;;;;14.63;13.10;;;19.30;83.00;;;;;;4976302;28;20171;-86
2023/06/19 06:23:04;;;;;;;14.57;13.27;;;19.20;83.80;;;;;;4977634;28;20198;-86
2023/06/19 06:25:30;;;;;;;13.95;12.68;;;19.10;84.30;;;;;;4976303;28;20174;-86
2023/06/19 06:27:55;;;;;;;14.60;13.10;;;19.00;84.70;;;;;;4978268;28;20173;-86
2023/06/19 06:30:22;;;;;;;13.27;11.98;;;19.00;84.70;;;;;;4977384;28;20515;-86
2023/06/19 06:32:48;;;;;;;15.27;13.75;;;19.00;84.50;;;;;;4976024;28;20197;-86
2023/06/19 06:35:13;;;;;;;15.60;13.05;;;19.10;84.60;;;;;;4976098;28;20496;-86
2023/06/19 06:37:39;;;;;;;14.23;12.38;;;19.00;85.30;;;;;;4977301;28;20163;-85
2023/06/19 06:40:09;;;;;;;13.25;12.15;;;18.90;85.20;;;;;;4975939;28;20233;-86
2023/06/19 06:42:34;;;;;;;15.25;12.70;;;18.90;84.90;;;;;;4977020;28;20241;-86
2023/06/19 06:45:00;;;;;;;16.00;13.82;;;18.90;84.60;;;;;;4975702;28;20206;-86
2023/06/19 06:47:25;;;;;;;16.05;12.35;;;18.90;84.70;;;;;;4975783;28;20176;-87
2023/06/19 06:49:51;;;;;;;15.18;12.57;;;18.90;84.60;;;;;;4975760;28;20594;-87
2023/06/19 06:52:16;;;;;;;15.57;13.00;;;19.00;84.50;;;;;;4977054;28;20221;-87
2023/06/19 06:54:42;;;;;;;15.48;13.23;;;19.00;84.20;;;;;;4975742;28;20179;-87
2023/06/19 06:57:08;;;;;;;16.77;12.90;;;19.20;84.00;;;;;;4975276;28;20285;-87
2023/06/19 06:59:33;;;;;;;14.13;12.82;;;19.30;84.00;;;;;;4976886;28;20258;-87
2023/06/19 07:01:59;;;;;;;14.30;12.95;;;19.50;84.20;;;;;;4975592;28;20182;-86
2023/06/19 07:04:25;;;;;;;14.50;13.00;;;19.50;84.10;;;;;;4975391;28;20216;-87
2023/06/19 07:06:50;;;;;;;15.82;14.18;;;19.50;84.40;;;;;;4976382;28;20258;-87
2023/06/19 07:09:16;;;;;;;16.00;13.27;;;19.50;84.60;;;;;;4975437;28;20258;-87
2023/06/19 07:11:42;;;;;;;14.88;13.27;;;19.50;84.60;;;;;;4975478;28;20269;-87
2023/06/19 07:14:08;;;;;;;15.30;13.90;;;19.40;84.70;;;;;;4975263;28;20573;-87
2023/06/19 07:16:33;;;;;;;15.35;13.90;;;19.50;85.00;;;;;;4976223;28;20679;-87
2023/06/19 07:18:59;;;;;;;15.90;14.30;;;19.50;85.10;;;;;;4975274;28;20553;-87
2023/06/19 07:21:25;;;;;;;15.27;13.80;;;19.50;85.70;;;;;;4976409;28;20257;-87
2023/06/19 07:23:51;;;;;;;16.45;14.95;;;19.60;86.10;;;;;;4975104;28;20249;-87
2023/06/19 07:26:17;;;;;;;15.40;13.82;;;19.50;86.10;;;;;;4975092;28;20198;-87
2023/06/19 07:28:43;;;;;;;15.23;13.73;;;19.50;86.10;;;;;;4976558;28;20257;-86
2023/06/19 07:31:08;;;;;;;15.50;13.88;;;19.60;86.10;;;;;;4975098;28;20269;-87
2023/06/19 07:33:34;;;;;;;15.02;13.63;;;19.60;86.00;;;;;;4976451;28;20191;-87
2023/06/19 07:36:02;;;;;;;15.05;13.63;;;19.70;85.80;;;;;;4976411;28;20649;-87
2023/06/19 07:38:27;;;;;;;16.20;14.20;;;19.80;85.50;;;;;;4976203;28;20199;-87
2023/06/19 07:40:53;;;;;;;15.65;14.18;;;19.90;85.30;;;;;;4976000;28;20216;-87
2023/06/19 07:43:19;;;;;;;15.75;14.25;;;19.90;84.10;;;;;;4974803;28;20214;-87
2023/06/19 07:45:44;;;;;;;15.07;13.38;;;20.10;84.40;;;;;;4974773;28;20179;-87
2023/06/19 07:48:09;;;;;;;15.82;14.23;;;20.20;83.80;;;;;;4976229;28;20226;-87
2023/06/19 07:50:35;;;;;;;17.50;14.50;;;20.30;83.40;;;;;;4974724;28;20171;-87
2023/06/19 07:53:00;;;;;;;14.38;13.07;;;20.30;83.20;;;;;;4975726;28;20191;-87
2023/06/19 07:55:26;;;;;;;15.18;13.77;;;20.40;82.50;;;;;;4974521;28;20551;-87
2023/06/19 07:57:53;;;;;;;14.73;13.20;;;20.40;81.70;;;;;;4974519;28;20226;-87
2023/06/19 08:00:18;;;;;;;17.40;14.18;;;20.50;80.10;;;;;;4974524;28;20181;-87
2023/06/19 08:02:44;;;;;;;15.52;14.13;;;20.60;80.50;;;;;;4974846;28;20187;-87
2023/06/19 08:05:10;;;;;;;14.13;12.65;;;20.70;81.00;;;;;;4974464;28;20279;-87
2023/06/19 08:07:36;;;;;;;20.42;18.73;;;20.80;81.00;;;;;;4973929;28;20218;-87
2023/06/19 08:10:03;;;;;;;23.70;21.65;;;21.10;80.40;;;;;;4974325;28;20174;-87
2023/06/19 08:12:30;;;;;;;24.50;22.27;;;21.10;79.60;;;;;;4974283;28;20202;-87
2023/06/19 08:14:56;;;;;;;23.33;21.23;;;21.30;78.90;;;;;;4975524;28;20671;-87
2023/06/19 08:17:21;;;;;;;24.80;22.85;;;21.60;78.30;;;;;;4974219;28;20179;-87
2023/06/19 08:19:47;;;;;;;24.83;22.65;;;21.80;76.70;;;;;;4975562;28;20179;-87
2023/06/19 08:22:13;;;;;;;25.58;23.48;;;22.10;75.90;;;;;;4973958;28;20190;-86
2023/06/19 08:24:40;;;;;;;25.60;23.38;;;22.30;74.50;;;;;;4975164;28;20194;-87
2023/06/19 08:27:06;;;;;;;24.95;23.00;;;22.70;73.00;;;;;;4975177;28;20538;-87
2023/06/19 08:29:32;;;;;;;22.77;20.52;;;22.90;71.50;;;;;;4973953;28;20174;-87
2023/06/19 08:31:57;;;;;;;24.67;22.83;;;23.10;70.50;;;;;;4975057;28;20178;-87
2023/06/19 08:34:23;;;;;;;16.88;15.48;;;23.20;70.00;;;;;;4973894;28;20198;-87
2023/06/19 08:36:49;;;;;;;17.48;15.63;;;23.30;69.10;;;;;;4973758;28;20242;-87
2023/06/19 08:39:14;;;;;;;18.45;16.75;;;23.40;68.10;;;;;;4975143;28;20183;-87
2023/06/19 08:41:41;;;;;;;18.58;14.80;;;23.20;67.60;;;;;;4973817;28;20187;-87
2023/06/19 08:44:07;;;;;;;16.45;14.95;;;23.30;68.80;;;;;;4974792;28;20209;-86
2023/06/19 08:46:34;;;;;;;17.90;16.38;;;23.40;70.00;;;;;;4973708;28;20188;-87
2023/06/19 08:49:00;;;;;;;18.30;16.80;;;23.60;69.70;;;;;;4973721;28;20175;-87
2023/06/19 08:51:28;;;;;;;18.20;16.50;;;23.80;67.70;;;;;;4974922;28;20182;-87
2023/06/19 08:54:04;;;;;;;19.00;17.02;;;24.00;67.10;;;;;;4973479;28;20230;-87
2023/06/19 08:56:34;;;;;;;19.90;18.05;;;24.20;66.70;;;;;;4973708;28;20166;-87
2023/06/19 08:59:17;;;;;;;20.90;19.15;;;24.40;63.40;;;;;;4974670;28;20262;-87
2023/06/19 09:01:53;;;;;;;21.15;19.30;;;24.50;63.10;;;;;;4974082;28;20645;-87
2023/06/19 09:04:21;;;;;;;20.65;18.95;;;24.80;63.00;;;;;;4973271;28;20731;-87
2023/06/19 09:06:51;;;;;;;21.98;20.27;;;25.10;60.00;;;;;;4974602;28;20174;-87
2023/06/19 09:09:21;;;;;;;21.17;19.38;;;25.10;60.20;;;;;;4974661;28;20687;-87
2023/06/19 09:11:59;;;;;;;22.13;20.33;;;25.00;61.00;;;;;;4973406;28;20661;-87
2023/06/19 09:14:32;;;;;;;21.38;19.77;;;24.80;60.40;;;;;;4974473;28;20708;-87
2023/06/19 09:16:58;;;;;;;22.42;20.52;;;24.80;61.20;;;;;;4973304;28;20175;-87
2023/06/19 09:19:23;;;;;;;23.02;21.13;;;24.70;61.80;;;;;;4973127;28;20668;-87
2023/06/19 09:21:49;;;;;;;22.77;21.00;;;24.70;62.10;;;;;;4974388;28;20183;-87
2023/06/19 09:24:15;;;;;;;22.58;20.55;;;24.70;61.40;;;;;;4972976;28;20245;-87
2023/06/19 09:26:40;;;;;;;22.50;20.70;;;24.60;62.30;;;;;;4973250;28;20217;-87
2023/06/19 09:29:15;;;;;;;22.02;20.40;;;24.70;61.50;;;;;;4973380;28;20183;-87
2023/06/19 09:31:41;;;;;;;21.75;19.73;;;24.80;61.40;;;;;;4973162;28;20174;-87
2023/06/19 09:34:08;;;;;;;23.45;21.52;;;24.80;60.70;;;;;;4973084;28;20301;-87
2023/06/19 09:36:34;;;;;;;20.95;19.25;;;24.90;62.40;;;;;;4972938;28;20198;-87
2023/06/19 09:39:02;;;;;;;22.02;20.42;;;24.90;61.60;;;;;;4973043;28;20178;-87
2023/06/19 09:41:29;;;;;;;22.15;20.30;;;25.20;62.90;;;;;;4973097;28;20229;-87
2023/06/19 09:43:59;;;;;;;22.30;20.60;;;25.40;63.30;;;;;;4974162;28;20202;-87
2023/06/19 09:46:31;;;;;;;22.80;20.75;;;25.50;61.70;;;;;;4973029;28;20268;-87
2023/06/19 09:49:01;;;;;;;21.98;19.85;;;25.60;61.00;;;;;;4974226;28;20532;-87
2023/06/19 09:51:37;;;;;;;22.55;20.40;;;25.50;60.70;;;;;;4973076;28;20167;-87
2023/06/19 09:54:05;;;;;;;24.10;22.10;;;25.20;61.00;;;;;;4972909;28;20585;-87
2023/06/19 09:56:33;;;;;;;22.92;21.00;;;25.20;61.10;;;;;;4973230;28;20178;-87
2023/06/19 09:59:00;;;;;;;22.00;20.10;;;25.40;60.20;;;;;;4973484;28;20201;-87
2023/06/19 10:01:28;;;;;;;22.48;20.35;;;25.60;60.00;;;;;;4972935;28;20179;-88
2023/06/19 10:04:06;;;;;;;21.95;20.15;;;25.80;60.00;;;;;;4972812;28;20213;-87
2023/06/19 10:06:31;;;;;;;22.83;20.17;;;26.10;58.10;;;;;;4972965;28;20174;-87
2023/06/19 10:09:06;;;;;;;22.15;20.35;;;26.20;59.80;;;;;;4974300;28;20177;-87
2023/06/19 10:11:48;;;;;;;22.25;20.35;;;26.40;60.10;;;;;;4972902;28;20605;-87
2023/06/19 10:14:14;;;;;;;21.73;19.58;;;26.70;59.60;;;;;;4972761;28;20202;-87
2023/06/19 10:16:41;;;;;;;22.98;20.33;;;26.80;57.80;;;;;;4972766;28;20723;-87
2023/06/19 10:19:18;;;;;;;23.27;21.27;;;26.90;57.70;;;;;;4972724;28;20194;-87
2023/06/19 10:21:50;;;;;;;22.02;20.13;;;27.20;55.70;;;;;;4972766;28;20182;-87
2023/06/19 10:24:19;;;;;;;23.20;20.90;;;27.20;56.20;;;;;;4972661;28;20683;-88
2023/06/19 10:26:59;;;;;;;22.10;20.40;;;27.30;55.70;;;;;;4972859;28;20171;-88
2023/06/19 10:29:27;;;;;;;22.55;20.75;;;27.20;55.00;;;;;;4975172;28;20534;-89
2023/06/19 10:31:56;;;;;;;21.02;19.33;;;26.90;55.10;;;;;;4974289;28;20184;-89
2023/06/19 10:34:22;;;;;;;21.48;19.50;;;27.00;54.70;;;;;;4976132;28;20198;-88
2023/06/19 10:36:47;;;;;;;21.63;19.98;;;27.00;54.60;;;;;;4976107;28;20677;-89
2023/06/19 10:39:13;;;;;;;21.45;19.75;;;27.10;53.60;;;;;;4976127;28;20191;-89
2023/06/19 10:41:40;;;;;;;20.35;18.48;;;27.20;53.80;;;;;;4977611;28;20182;-88
2023/06/19 10:44:12;;;;;;;21.25;18.75;;;27.30;53.20;;;;;;4976998;28;20214;-88
2023/06/19 10:46:38;;;;;;;21.50;19.80;;;26.90;54.30;;;;;;4977159;28;20159;-88
2023/06/19 10:49:06;;;;;;;20.30;18.80;;;27.00;52.90;;;;;;4975705;28;20532;-88
2023/06/19 10:51:34;;;;;;;21.08;19.48;;;27.40;51.40;;;;;;4975862;28;20178;-88
2023/06/19 10:54:00;;;;;;;20.80;19.10;;;27.80;51.50;;;;;;4976935;28;20611;-88
2023/06/19 10:56:25;;;;;;;20.45;18.95;;;27.80;51.40;;;;;;4976556;28;20171;-88
2023/06/19 10:59:05;;;;;;;21.50;19.58;;;27.50;50.10;;;;;;4977008;28;20171;-88
2023/06/19 11:01:39;;;;;;;22.00;20.25;;;27.50;51.00;;;;;;4976928;28;20700;-87
2023/06/19 11:04:09;;;;;;;21.83;19.95;;;27.70;48.90;;;;;;4975402;28;20238;-88
2023/06/19 11:06:36;;;;;;;19.77;18.15;;;27.80;48.40;;;;;;4976421;28;20246;-87
2023/06/19 11:09:06;;;;;;;21.73;19.70;;;28.20;49.20;;;;;;4975440;28;20665;-87
2023/06/19 11:11:37;;;;;;;20.25;18.67;;;28.30;49.30;;;;;;4976951;28;20167;-88
2023/06/19 11:14:03;;;;;;;20.65;18.92;;;28.50;48.90;;;;;;4975402;28;20206;-88
2023/06/19 11:16:28;;;;;;;20.52;18.80;;;28.70;47.50;;;;;;4975579;28;20261;-87
2023/06/19 11:18:56;;;;;;;19.55;18.02;;;29.20;46.40;;;;;;4975409;28;20221;-87
2023/06/19 11:21:30;;;;;;;19.75;18.10;;;29.10;46.30;;;;;;4976560;28;20175;-88
2023/06/19 11:23:57;;;;;;;19.13;17.50;;;28.50;47.60;;;;;;4976406;28;20677;-88
2023/06/19 11:26:25;;;;;;;19.73;17.85;;;28.20;48.10;;;;;;4976449;28;20242;-88
2023/06/19 11:28:50;;;;;;;18.98;17.27;;;27.70;49.00;;;;;;4976543;28;20178;-88
2023/06/19 11:31:16;;;;;;;19.58;17.98;;;27.30;49.50;;;;;;4975349;28;20269;-88
2023/06/19 11:33:41;;;;;;;19.27;17.60;;;27.20;51.80;;;;;;4974933;28;20293;-88
2023/06/19 11:36:08;;;;;;;18.55;17.23;;;27.30;50.30;;;;;;4974861;28;20221;-88
2023/06/19 11:38:38;;;;;;;18.90;17.35;;;27.60;52.60;;;;;;4975016;28;20615;-88
2023/06/19 11:41:03;;;;;;;20.17;17.13;;;27.50;51.30;;;;;;4974945;28;20191;-87
2023/06/19 11:43:31;;;;;;;19.00;17.42;;;27.40;51.70;;;;;;4973700;28;20214;-88
2023/06/19 11:46:07;;;;;;;19.15;17.55;;;27.20;51.30;;;;;;4974938;28;20547;-88
2023/06/19 11:48:37;;;;;;;19.98;17.60;;;27.20;51.90;;;;;;4976086;28;20177;-88
2023/06/19 11:51:03;;;;;;;20.40;18.60;;;27.10;53.10;;;;;;4976024;28;20179;-87
2023/06/19 11:53:28;;;;;;;19.75;18.05;;;26.70;55.40;;;;;;4974566;28;20230;-87
2023/06/19 11:55:55;;;;;;;18.88;17.27;;;26.50;57.40;;;;;;4974764;28;20210;-87
2023/06/19 11:58:20;;;;;;;19.10;17.60;;;26.40;59.00;;;;;;4974713;28;20178;-88
2023/06/19 12:00:46;;;;;;;18.60;17.15;;;26.20;60.70;;;;;;4974509;28;20602;-87
2023/06/19 12:03:12;;;;;;;17.98;16.65;;;26.80;59.00;;;;;;4975639;28;20297;-88
2023/06/19 12:05:38;;;;;;;18.30;16.90;;;26.90;58.80;;;;;;4974482;28;20209;-87
2023/06/19 12:08:04;;;;;;;18.77;17.08;;;26.90;58.00;;;;;;4974446;28;20226;-87
2023/06/19 12:10:30;;;;;;;18.42;17.13;;;26.60;57.90;;;;;;4974407;28;20182;-87
2023/06/19 12:12:56;;;;;;;18.60;16.98;;;26.70;58.70;;;;;;4975817;28;20190;-87
2023/06/19 12:15:22;;;;;;;18.42;16.83;;;26.90;56.00;;;;;;4975550;28;20549;-87
2023/06/19 12:17:48;;;;;;;19.02;17.42;;;26.80;55.90;;;;;;4975438;28;20179;-88
2023/06/19 12:20:14;;;;;;;18.63;17.30;;;27.10;56.50;;;;;;4974405;28;20249;-87
2023/06/19 12:22:40;;;;;;;19.45;17.38;;;26.90;57.50;;;;;;4975456;28;20187;-87
2023/06/19 12:25:06;;;;;;;18.05;16.73;;;27.10;57.60;;;;;;4973939;28;20213;-88
2023/06/19 12:27:31;;;;;;;18.50;17.17;;;27.00;58.40;;;;;;4974314;28;20179;-88